Time;durP1;ratioP1;P1;durP2;ratioP2;P2;SDS_P1;SDS_P2;PMS_P1;PMS_P2;Temp;Humidity;BMP_temperature;BMP_pressure;BME280_temperature;BME280_humidity;BME280_pressure;Samples;Min_cycle;Max_cycle;Signal;HPM_P1;HPM_P2
2024/04/25 00:00:06;;;;;;;17.20;16.70;;;21.80;1.00;;;;;;2611707;54;20231;-66
2024/04/25 00:02:32;;;;;;;17.00;16.50;;;21.80;1.00;;;;;;2611375;47;20193;-67
2024/04/25 00:04:57;;;;;;;16.10;15.60;;;21.80;1.00;;;;;;2612352;54;20408;-67
2024/04/25 00:07:23;;;;;;;16.27;15.77;;;21.80;1.00;;;;;;2611455;54;20205;-67
2024/04/25 00:09:49;;;;;;;16.70;16.20;;;21.80;1.00;;;;;;2612224;54;20147;-67
2024/04/25 00:12:15;;;;;;;16.80;16.30;;;21.80;1.00;;;;;;2611600;47;20166;-66
2024/04/25 00:14:40;;;;;;;16.30;15.80;;;21.80;1.00;;;;;;2612343;54;20174;-67
2024/04/25 00:17:06;;;;;;;16.40;15.90;;;21.80;1.00;;;;;;2612117;54;20395;-67
2024/04/25 00:19:33;;;;;;;17.30;16.80;;;21.80;1.00;;;;;;2611574;54;20169;-67
2024/04/25 00:21:59;;;;;;;17.00;16.50;;;21.70;1.00;;;;;;2611185;39;20629;-67
2024/04/25 00:24:24;;;;;;;17.23;16.73;;;21.80;1.00;;;;;;2611500;54;20515;-67
2024/04/25 00:26:50;;;;;;;16.93;16.43;;;21.70;1.00;;;;;;2611974;54;20159;-67
2024/04/25 00:29:16;;;;;;;17.30;16.80;;;21.80;1.00;;;;;;2611935;54;20163;-67
2024/04/25 00:31:42;;;;;;;16.60;16.10;;;21.70;1.00;;;;;;2611996;47;20828;-66
2024/04/25 00:34:07;;;;;;;16.70;16.20;;;21.70;1.00;;;;;;2611190;54;20286;-67
2024/04/25 00:36:33;;;;;;;16.73;16.23;;;21.70;1.00;;;;;;2611514;54;20154;-65
2024/04/25 00:39:00;;;;;;;16.37;15.87;;;21.70;1.00;;;;;;2612534;54;20161;-66
2024/04/25 00:41:26;;;;;;;16.70;16.20;;;21.70;1.00;;;;;;2612625;54;20175;-67
2024/04/25 00:43:52;;;;;;;17.07;16.57;;;21.70;1.00;;;;;;2612472;54;20410;-66
2024/04/25 00:46:18;;;;;;;16.90;16.40;;;21.70;1.00;;;;;;2612615;54;20167;-67
2024/04/25 00:48:45;;;;;;;16.47;15.97;;;21.70;1.00;;;;;;2612161;54;20202;-67
2024/04/25 00:51:11;;;;;;;16.60;16.10;;;21.70;1.00;;;;;;2611932;54;20418;-67
2024/04/25 00:53:38;;;;;;;15.17;14.67;;;21.70;1.00;;;;;;2612717;54;20451;-67
2024/04/25 00:56:06;;;;;;;16.50;16.00;;;21.70;1.00;;;;;;2612245;54;20420;-66
2024/04/25 00:58:33;;;;;;;16.80;16.30;;;21.70;1.00;;;;;;2612062;47;20410;-67
2024/04/25 01:01:01;;;;;;;17.13;16.63;;;21.60;1.00;;;;;;2611310;54;20426;-67
2024/04/25 01:03:30;;;;;;;16.37;15.87;;;21.60;1.00;;;;;;2611983;47;20434;-67
2024/04/25 01:05:56;;;;;;;17.20;16.70;;;21.60;1.00;;;;;;2610924;54;20411;-60
2024/04/25 01:08:22;;;;;;;16.50;16.00;;;21.60;1.00;;;;;;2612242;39;20816;-60
2024/04/25 01:10:50;;;;;;;16.73;16.23;;;21.60;1.00;;;;;;2610903;54;20570;-59
2024/04/25 01:13:15;;;;;;;17.30;16.80;;;21.60;1.00;;;;;;2612002;54;20514;-60
2024/04/25 01:15:42;;;;;;;16.50;16.00;;;21.60;1.00;;;;;;2611899;54;21262;-59
2024/04/25 01:18:08;;;;;;;17.60;17.00;;;21.60;1.00;;;;;;2612261;54;20288;-60
2024/04/25 01:20:34;;;;;;;17.03;16.53;;;21.60;1.00;;;;;;2612325;39;20918;-59
2024/04/25 01:23:06;;;;;;;17.03;16.53;;;21.60;1.00;;;;;;2611054;54;20145;-59
2024/04/25 01:25:33;;;;;;;16.90;16.40;;;21.60;1.00;;;;;;2612273;54;20407;-60
2024/04/25 01:28:00;;;;;;;16.60;16.10;;;21.60;1.00;;;;;;2612381;54;20419;-59
2024/04/25 01:30:27;;;;;;;16.20;15.70;;;21.60;1.00;;;;;;2611418;54;20392;-60
2024/04/25 01:32:54;;;;;;;16.70;16.20;;;21.50;1.00;;;;;;2611539;54;20427;-59
2024/04/25 01:35:23;;;;;;;16.90;16.40;;;21.60;1.00;;;;;;2612025;54;20419;-60
2024/04/25 01:37:50;;;;;;;16.80;16.30;;;21.50;1.00;;;;;;2612326;47;20430;-60
2024/04/25 01:40:17;;;;;;;16.80;16.30;;;21.50;1.00;;;;;;2611810;54;20459;-60
2024/04/25 01:42:43;;;;;;;17.30;16.80;;;21.50;1.00;;;;;;2611724;47;20419;-60
2024/04/25 01:45:09;;;;;;;16.67;16.17;;;21.50;1.00;;;;;;2611833;39;22169;-59
2024/04/25 01:47:34;;;;;;;16.70;16.20;;;21.50;1.00;;;;;;2611849;54;20166;-60
2024/04/25 01:50:00;;;;;;;17.70;17.10;;;21.50;1.00;;;;;;2612080;54;20285;-59
2024/04/25 01:52:26;;;;;;;16.57;16.07;;;21.50;1.00;;;;;;2611677;54;20190;-60
2024/04/25 01:54:52;;;;;;;16.57;16.07;;;21.50;1.00;;;;;;2611415;54;20186;-60
2024/04/25 01:57:17;;;;;;;17.13;16.63;;;21.50;1.00;;;;;;2612155;54;20181;-67
2024/04/25 01:59:43;;;;;;;17.47;16.97;;;21.50;1.00;;;;;;2611042;54;20663;-67
2024/04/25 02:02:09;;;;;;;17.10;16.60;;;21.50;1.00;;;;;;2611985;54;20189;-66
2024/04/25 02:04:34;;;;;;;16.83;16.33;;;21.50;1.00;;;;;;2611811;54;20166;-66
2024/04/25 02:07:01;;;;;;;17.77;17.17;;;21.50;1.00;;;;;;2611433;54;20174;-65
2024/04/25 02:09:26;;;;;;;17.83;17.23;;;21.50;1.00;;;;;;2611991;47;20174;-64
2024/04/25 02:11:52;;;;;;;17.70;17.10;;;21.50;1.00;;;;;;2612245;54;20458;-65
2024/04/25 02:14:18;;;;;;;17.80;17.20;;;21.50;1.00;;;;;;2611686;54;20146;-66
2024/04/25 02:16:43;;;;;;;17.40;16.90;;;21.50;1.00;;;;;;2611976;54;20181;-67
2024/04/25 02:19:09;;;;;;;18.20;17.60;;;21.50;1.00;;;;;;2611621;54;20298;-67
2024/04/25 02:27:03;;;;;;;16.77;16.27;;;21.50;1.00;;;;;;2611588;54;21553;-66
2024/04/25 02:29:29;;;;;;;16.90;16.40;;;21.50;1.00;;;;;;2612814;54;20392;-67
2024/04/25 02:31:55;;;;;;;17.30;16.80;;;21.40;1.00;;;;;;2610895;54;20204;-66
2024/04/25 02:34:21;;;;;;;17.53;16.93;;;21.40;1.00;;;;;;2612075;54;20267;-66
2024/04/25 02:36:46;;;;;;;16.97;16.47;;;21.40;1.00;;;;;;2611745;39;20908;-67
2024/04/25 02:39:12;;;;;;;17.00;16.50;;;21.40;1.00;;;;;;2611846;54;20143;-67
2024/04/25 02:41:38;;;;;;;18.40;17.80;;;21.40;1.00;;;;;;2612167;54;20143;-67
2024/04/25 02:44:04;;;;;;;18.17;17.57;;;21.40;1.00;;;;;;2611538;54;20183;-67
2024/04/25 02:46:29;;;;;;;18.60;18.00;;;21.40;1.00;;;;;;2611933;54;20182;-67
2024/04/25 02:48:56;;;;;;;18.13;17.53;;;21.40;1.00;;;;;;2612553;54;20438;-67
2024/04/25 02:51:21;;;;;;;18.60;18.00;;;21.40;1.00;;;;;;2611762;54;20160;-66
2024/04/25 02:53:47;;;;;;;18.03;17.43;;;21.40;1.00;;;;;;2612670;54;20443;-67
2024/04/25 02:56:13;;;;;;;17.97;17.37;;;21.40;1.00;;;;;;2611532;54;20210;-67
2024/04/25 02:58:38;;;;;;;18.20;17.60;;;21.40;1.00;;;;;;2612320;54;20169;-66
2024/04/25 03:01:04;;;;;;;17.80;17.20;;;21.40;1.00;;;;;;2611809;54;20151;-68
2024/04/25 03:03:30;;;;;;;17.40;16.90;;;21.30;1.00;;;;;;2611837;54;20838;-67
2024/04/25 03:05:56;;;;;;;17.90;17.30;;;21.30;1.00;;;;;;2611587;54;20306;-69
2024/04/25 03:08:22;;;;;;;18.23;17.63;;;21.30;1.00;;;;;;2612567;39;20571;-67
2024/04/25 03:10:47;;;;;;;18.30;17.70;;;21.30;1.00;;;;;;2612135;54;20399;-68
2024/04/25 03:13:14;;;;;;;18.40;17.80;;;21.30;1.00;;;;;;2611620;54;20142;-69
2024/04/25 03:15:39;;;;;;;18.50;17.90;;;21.30;1.00;;;;;;2612482;31;20639;-68
2024/04/25 03:18:05;;;;;;;18.70;18.10;;;21.30;1.00;;;;;;2611893;54;20386;-69
2024/04/25 03:20:31;;;;;;;18.40;17.80;;;21.30;1.00;;;;;;2611939;54;20290;-68
2024/04/25 03:22:57;;;;;;;18.43;17.83;;;21.30;1.00;;;;;;2611901;54;20400;-69
2024/04/25 03:25:23;;;;;;;18.10;17.50;;;21.30;1.00;;;;;;2611715;54;20392;-68
2024/04/25 03:27:49;;;;;;;18.20;17.60;;;21.30;1.00;;;;;;2611770;54;20149;-68
2024/04/25 03:30:15;;;;;;;18.00;17.40;;;21.30;1.00;;;;;;2610952;54;20242;-68
2024/04/25 03:32:41;;;;;;;16.73;16.23;;;21.30;1.00;;;;;;2611748;54;20396;-68
2024/04/25 03:35:07;;;;;;;17.60;17.10;;;21.30;1.00;;;;;;2612083;54;20416;-68
2024/04/25 03:37:32;;;;;;;17.20;16.70;;;21.30;1.00;;;;;;2611025;54;20209;-69
2024/04/25 03:39:58;;;;;;;17.70;17.10;;;21.20;1.00;;;;;;2612270;54;20285;-69
2024/04/25 03:42:24;;;;;;;18.30;17.70;;;21.20;1.00;;;;;;2611961;31;20645;-68
2024/04/25 03:44:50;;;;;;;16.90;16.40;;;21.20;1.00;;;;;;2612540;54;20170;-68
2024/04/25 03:47:16;;;;;;;17.40;16.90;;;21.20;1.00;;;;;;2612398;39;20721;-68
2024/04/25 03:49:42;;;;;;;17.20;16.70;;;21.20;1.00;;;;;;2611963;54;20416;-68
2024/04/25 03:52:07;;;;;;;17.40;16.90;;;21.20;1.00;;;;;;2611590;54;20146;-69
2024/04/25 03:54:33;;;;;;;16.70;16.20;;;21.20;1.00;;;;;;2612017;54;20162;-69
2024/04/25 03:56:59;;;;;;;18.10;17.50;;;21.20;1.00;;;;;;2611608;54;20166;-69
2024/04/25 03:59:26;;;;;;;18.17;17.57;;;21.20;1.00;;;;;;2611829;39;21096;-69
2024/04/25 04:01:51;;;;;;;17.87;17.30;;;21.20;1.00;;;;;;2612590;39;20847;-68
2024/04/25 04:04:17;;;;;;;17.20;16.70;;;21.20;1.00;;;;;;2611706;47;20431;-68
2024/04/25 04:06:43;;;;;;;17.10;16.60;;;21.20;1.00;;;;;;2612210;54;20189;-68
2024/04/25 04:09:09;;;;;;;17.43;16.93;;;21.20;1.00;;;;;;2611075;54;20431;-68
2024/04/25 04:11:38;;;;;;;16.90;16.40;;;21.20;1.00;;;;;;2612165;54;20222;-68
2024/04/25 04:14:04;;;;;;;17.90;17.30;;;21.20;1.00;;;;;;2612855;47;20170;-68
2024/04/25 04:16:30;;;;;;;18.20;17.60;;;21.20;1.00;;;;;;2612829;54;20412;-72
2024/04/25 04:18:56;;;;;;;18.50;17.90;;;21.20;1.00;;;;;;2613637;54;20430;-72
2024/04/25 04:21:21;;;;;;;18.00;17.40;;;21.20;1.00;;;;;;2612919;54;20246;-73
2024/04/25 04:23:47;;;;;;;17.40;16.90;;;21.20;1.00;;;;;;2613588;54;20138;-73
2024/04/25 04:26:13;;;;;;;18.00;17.40;;;21.20;1.00;;;;;;2612425;47;20312;-67
2024/04/25 04:28:39;;;;;;;18.00;17.40;;;21.20;1.00;;;;;;2612324;54;20988;-67
2024/04/25 04:31:06;;;;;;;18.70;18.10;;;21.20;1.00;;;;;;2612508;54;21100;-67
2024/04/25 04:33:34;;;;;;;18.33;17.73;;;21.20;1.00;;;;;;2612043;47;20166;-67
2024/04/25 04:36:02;;;;;;;18.23;17.63;;;21.20;1.00;;;;;;2612384;54;20425;-60
2024/04/25 04:38:28;;;;;;;17.70;17.20;;;21.10;1.00;;;;;;2612755;39;21415;-73
2024/04/25 04:40:54;;;;;;;17.50;17.00;;;21.10;1.00;;;;;;2613303;54;20419;-73
2024/04/25 04:43:20;;;;;;;19.37;18.77;;;21.10;1.00;;;;;;2612870;54;20166;-73
2024/04/25 04:45:46;;;;;;;18.47;17.87;;;21.10;1.00;;;;;;2612134;54;20948;-73
2024/04/25 04:48:12;;;;;;;18.43;17.83;;;21.10;1.00;;;;;;2613207;47;20418;-73
2024/04/25 04:50:38;;;;;;;18.20;17.60;;;21.10;1.00;;;;;;2612745;54;20399;-73
2024/04/25 04:53:04;;;;;;;18.00;17.40;;;21.10;1.00;;;;;;2612872;47;20539;-73
2024/04/25 04:55:29;;;;;;;19.00;18.40;;;21.10;1.00;;;;;;2612788;54;20165;-73
2024/04/25 04:57:55;;;;;;;17.73;17.23;;;21.10;1.00;;;;;;2613124;54;20154;-73
2024/04/25 05:00:21;;;;;;;19.03;18.43;;;21.10;1.00;;;;;;2612668;54;20170;-73
2024/04/25 05:02:47;;;;;;;18.07;17.47;;;21.10;1.00;;;;;;2613013;54;20150;-73
2024/04/25 05:05:13;;;;;;;18.30;17.70;;;21.10;1.00;;;;;;2613224;47;20265;-73
2024/04/25 05:07:38;;;;;;;19.23;18.63;;;21.00;1.00;;;;;;2611486;54;20423;-74
2024/04/25 05:10:05;;;;;;;17.37;16.87;;;21.00;1.00;;;;;;2613255;54;21440;-73
2024/04/25 05:12:31;;;;;;;19.60;19.00;;;21.00;1.00;;;;;;2612229;50;20162;-73
2024/04/25 05:14:56;;;;;;;17.83;17.30;;;21.00;1.00;;;;;;2613226;47;20415;-74
2024/04/25 05:17:22;;;;;;;17.63;17.13;;;21.00;1.00;;;;;;2613265;47;20458;-73
2024/04/25 05:19:48;;;;;;;18.10;17.50;;;21.00;1.00;;;;;;2612656;54;20169;-73
2024/04/25 05:22:14;;;;;;;16.17;15.67;;;21.00;1.00;;;;;;2611008;54;20151;-73
2024/04/25 05:24:39;;;;;;;16.50;16.00;;;21.00;1.00;;;;;;2612709;54;20166;-73
2024/04/25 05:27:05;;;;;;;16.83;16.33;;;21.00;1.00;;;;;;2612917;54;20155;-68
2024/04/25 05:29:31;;;;;;;18.53;17.93;;;21.00;1.00;;;;;;2613068;54;20175;-70
2024/04/25 05:31:57;;;;;;;18.80;18.20;;;21.20;1.00;;;;;;2612901;54;20426;-69
2024/04/25 05:34:49;;;;;;;18.93;18.33;;;21.50;1.00;;;;;;2615902;47;20163;-71
2024/04/25 05:37:14;;;;;;;18.67;18.07;;;21.70;1.00;;;;;;2612565;39;21274;-66
2024/04/25 05:39:40;;;;;;;19.80;19.20;;;21.80;1.00;;;;;;2610265;54;20439;-65
2024/04/25 05:42:06;;;;;;;19.73;19.13;;;21.90;1.00;;;;;;2611015;54;20147;-64
2024/04/25 05:44:31;;;;;;;19.03;18.43;;;22.00;1.00;;;;;;2611106;54;20186;-66
2024/04/25 05:46:57;;;;;;;19.30;18.70;;;22.20;1.00;;;;;;2611211;54;20154;-74
2024/04/25 05:49:24;;;;;;;19.20;18.60;;;22.30;1.00;;;;;;2611496;54;20324;-73
2024/04/25 05:51:49;;;;;;;19.70;19.10;;;22.30;1.00;;;;;;2610662;54;20218;-73
2024/04/25 05:54:15;;;;;;;15.27;14.77;;;22.30;1.00;;;;;;2611092;54;20423;-72
2024/04/25 05:56:41;;;;;;;16.50;16.00;;;22.20;1.00;;;;;;2606907;54;20173;-72
2024/04/25 05:59:06;;;;;;;15.80;15.30;;;22.00;1.00;;;;;;2609997;54;20166;-73
2024/04/25 06:01:32;;;;;;;14.60;14.20;;;21.80;1.00;;;;;;2610752;47;20173;-73
2024/04/25 06:03:58;;;;;;;15.27;14.77;;;21.70;1.00;;;;;;2610836;54;20162;-72
2024/04/25 06:06:24;;;;;;;15.27;14.77;;;21.50;1.00;;;;;;2610746;54;20147;-72
2024/04/25 06:08:51;;;;;;;15.50;15.00;;;21.50;1.00;;;;;;2611169;54;20174;-72
2024/04/25 06:11:17;;;;;;;15.03;14.53;;;21.50;1.00;;;;;;2611373;47;20166;-72
2024/04/25 06:13:43;;;;;;;15.10;14.60;;;21.50;1.00;;;;;;2611309;54;20430;-73
2024/04/25 06:16:09;;;;;;;14.50;14.10;;;21.40;1.00;;;;;;2612511;54;20202;-73
2024/04/25 06:18:35;;;;;;;15.20;14.70;;;21.40;1.00;;;;;;2612404;54;20166;-74
2024/04/25 06:21:01;;;;;;;15.60;15.10;;;21.40;1.00;;;;;;2608385;54;20439;-74
2024/04/25 06:23:27;;;;;;;15.33;14.83;;;21.40;1.00;;;;;;2612218;54;20688;-74
2024/04/25 06:25:53;;;;;;;15.30;14.80;;;21.40;1.00;;;;;;2612217;54;20154;-73
2024/04/25 06:28:18;;;;;;;15.40;14.90;;;21.40;1.00;;;;;;2611928;54;20179;-74
2024/04/25 06:30:44;;;;;;;15.20;14.70;;;21.40;1.00;;;;;;2612500;54;20250;-74
2024/04/25 06:33:10;;;;;;;14.90;14.50;;;21.40;1.00;;;;;;2611858;47;20175;-74
2024/04/25 06:35:35;;;;;;;15.60;15.10;;;21.40;1.00;;;;;;2611861;54;20206;-74
2024/04/25 06:38:01;;;;;;;14.30;13.90;;;21.40;1.00;;;;;;2612873;54;20147;-62
2024/04/25 06:40:27;;;;;;;15.63;15.13;;;21.40;1.00;;;;;;2611641;54;20151;-62
2024/04/25 06:42:53;;;;;;;15.00;14.60;;;21.30;1.00;;;;;;2610919;54;20441;-62
2024/04/25 06:45:20;;;;;;;15.67;15.17;;;21.30;1.00;;;;;;2611105;54;20158;-62
2024/04/25 06:47:46;;;;;;;15.57;15.07;;;21.40;1.00;;;;;;2612027;54;20194;-62
2024/04/25 06:50:12;;;;;;;14.93;14.50;;;21.30;1.00;;;;;;2612636;54;20400;-62
2024/04/25 06:52:37;;;;;;;15.67;15.17;;;21.40;1.00;;;;;;2612109;39;20697;-62
2024/04/25 06:55:04;;;;;;;16.20;15.70;;;21.40;1.00;;;;;;2610865;54;20178;-62
2024/04/25 06:57:29;;;;;;;14.97;14.50;;;21.40;1.00;;;;;;2610902;54;20217;-59
2024/04/25 06:59:56;;;;;;;15.17;14.70;;;21.30;1.00;;;;;;2611464;54;20426;-60
2024/04/25 07:02:22;;;;;;;16.00;15.50;;;21.40;1.00;;;;;;2611179;51;20191;-60
2024/04/25 07:04:48;;;;;;;16.30;15.80;;;21.40;1.00;;;;;;2612163;54;20455;-60
2024/04/25 07:07:13;;;;;;;16.30;15.80;;;21.30;1.00;;;;;;2610874;54;20435;-59
2024/04/25 07:09:39;;;;;;;15.50;15.00;;;21.30;1.00;;;;;;2611393;54;20150;-59
2024/04/25 07:12:06;;;;;;;16.33;15.83;;;21.20;1.00;;;;;;2611940;54;20175;-60
2024/04/25 07:14:31;;;;;;;15.30;14.80;;;21.20;1.00;;;;;;2612754;54;20296;-61
2024/04/25 07:16:57;;;;;;;14.80;14.40;;;21.20;1.00;;;;;;2612165;39;20479;-60
2024/04/25 07:19:23;;;;;;;16.60;16.10;;;21.20;1.00;;;;;;2612178;54;20155;-60
2024/04/25 07:21:49;;;;;;;15.77;15.27;;;20.70;1.00;;;;;;2611852;54;20151;-60
2024/04/25 07:24:14;;;;;;;16.40;15.90;;;20.70;1.00;;;;;;2612267;47;20163;-60
2024/04/25 07:26:40;;;;;;;15.90;15.40;;;20.70;1.00;;;;;;2612329;54;20154;-60
2024/04/25 07:29:06;;;;;;;16.13;15.63;;;20.30;1.00;;;;;;2611761;54;20318;-60
2024/04/25 07:31:31;;;;;;;16.07;15.57;;;20.20;1.00;;;;;;2611939;54;20230;-60
2024/04/25 07:33:57;;;;;;;16.50;16.00;;;20.30;1.00;;;;;;2612077;54;20161;-60
2024/04/25 07:36:23;;;;;;;15.80;15.30;;;20.40;1.00;;;;;;2612253;54;20154;-60
2024/04/25 07:38:49;;;;;;;15.37;14.87;;;20.60;1.00;;;;;;2611492;54;20166;-59
2024/04/25 07:41:15;;;;;;;14.80;14.40;;;20.70;1.00;;;;;;2611845;54;20226;-60
2024/04/25 07:43:41;;;;;;;16.30;15.80;;;20.70;1.00;;;;;;2612372;39;20972;-60
2024/04/25 07:46:09;;;;;;;15.90;15.40;;;20.80;1.00;;;;;;2612140;47;20173;-63
2024/04/25 07:48:35;;;;;;;15.83;15.33;;;20.80;1.00;;;;;;2611332;54;20273;-62
2024/04/25 07:51:04;;;;;;;17.10;16.60;;;20.90;1.00;;;;;;2611849;47;20438;-62
2024/04/25 07:53:30;;;;;;;15.90;15.40;;;20.90;1.00;;;;;;2611540;54;20457;-62
2024/04/25 07:55:56;;;;;;;16.00;15.50;;;21.00;1.00;;;;;;2610691;54;20427;-74
2024/04/25 07:58:21;;;;;;;16.17;15.67;;;21.00;1.00;;;;;;2610692;54;20421;-74
2024/04/25 08:00:49;;;;;;;16.43;15.93;;;21.00;1.00;;;;;;2611770;54;20205;-73
2024/04/25 08:03:14;;;;;;;15.10;14.60;;;21.10;1.00;;;;;;2611379;54;20162;-72
2024/04/25 08:05:40;;;;;;;15.80;15.30;;;21.10;1.00;;;;;;2611315;47;20414;-73
2024/04/25 08:08:06;;;;;;;15.43;14.93;;;21.10;1.00;;;;;;2611007;54;20179;-63
2024/04/25 08:10:32;;;;;;;16.20;15.70;;;21.10;1.00;;;;;;2611952;54;20171;-64
2024/04/25 08:12:58;;;;;;;15.77;15.27;;;21.20;1.00;;;;;;2611703;54;20494;-64
2024/04/25 08:15:24;;;;;;;15.20;14.73;;;21.20;1.00;;;;;;2612260;54;20399;-63
2024/04/25 08:17:50;;;;;;;16.40;15.90;;;21.20;1.00;;;;;;2612166;54;20534;-63
2024/04/25 08:20:16;;;;;;;15.13;14.63;;;21.20;1.00;;;;;;2611862;54;20171;-63
2024/04/25 08:22:41;;;;;;;16.13;15.63;;;21.30;1.00;;;;;;2610993;54;20282;-62
2024/04/25 08:25:07;;;;;;;15.10;14.60;;;21.30;1.00;;;;;;2611866;54;20511;-63
2024/04/25 08:27:33;;;;;;;15.67;15.17;;;21.30;1.00;;;;;;2611035;54;20150;-63
2024/04/25 08:29:59;;;;;;;14.50;14.10;;;21.20;1.00;;;;;;2611399;47;20166;-62
2024/04/25 08:32:25;;;;;;;14.93;14.50;;;21.20;1.00;;;;;;2611990;54;20403;-63
2024/04/25 08:34:50;;;;;;;16.13;15.63;;;21.10;1.00;;;;;;2611837;54;20147;-62
2024/04/25 08:37:16;;;;;;;16.03;15.53;;;21.10;1.00;;;;;;2611389;54;20147;-63
2024/04/25 08:39:42;;;;;;;16.00;15.50;;;21.10;1.00;;;;;;2611811;54;20159;-62
2024/04/25 08:42:09;;;;;;;16.83;16.33;;;21.10;1.00;;;;;;2611917;54;20151;-62
2024/04/25 08:44:37;;;;;;;16.77;16.27;;;21.10;1.00;;;;;;2611357;54;20237;-63
2024/04/25 08:47:04;;;;;;;17.40;16.90;;;21.20;1.00;;;;;;2611701;54;20485;-62
2024/04/25 08:49:32;;;;;;;17.63;17.13;;;21.20;1.00;;;;;;2612099;54;20391;-62
2024/04/25 08:51:59;;;;;;;17.00;16.50;;;21.20;1.00;;;;;;2611460;54;20426;-63
2024/04/25 08:54:25;;;;;;;16.87;16.37;;;21.10;1.00;;;;;;2610779;54;20522;-63
2024/04/25 08:56:53;;;;;;;16.17;15.67;;;21.10;1.00;;;;;;2612153;54;20422;-73
2024/04/25 08:59:19;;;;;;;16.87;16.37;;;21.10;1.00;;;;;;2613105;54;20403;-73
2024/04/25 09:01:48;;;;;;;16.40;15.90;;;21.10;1.00;;;;;;2611736;54;20573;-73
2024/04/25 09:04:19;;;;;;;16.90;16.40;;;21.10;1.00;;;;;;2612433;54;20151;-73
2024/04/25 09:06:45;;;;;;;16.53;16.03;;;21.10;1.00;;;;;;2612598;54;20408;-60
2024/04/25 09:09:12;;;;;;;16.10;15.60;;;21.10;1.00;;;;;;2613092;39;21292;-60
2024/04/25 09:11:38;;;;;;;16.03;15.53;;;21.10;1.00;;;;;;2612210;54;20407;-59
2024/04/25 09:14:04;;;;;;;16.07;15.57;;;21.10;1.00;;;;;;2611521;54;20434;-60
2024/04/25 09:16:36;;;;;;;16.83;16.33;;;21.10;1.00;;;;;;2611622;54;20396;-59
2024/04/25 09:19:02;;;;;;;17.97;17.37;;;21.10;1.00;;;;;;2610058;54;20411;-59
2024/04/25 09:21:28;;;;;;;17.10;16.60;;;21.10;1.00;;;;;;2610599;47;20408;-60
2024/04/25 09:23:54;;;;;;;16.10;15.60;;;21.10;1.00;;;;;;2611938;51;20431;-59
2024/04/25 09:26:20;;;;;;;16.90;16.40;;;21.10;1.00;;;;;;2612162;54;20171;-60
2024/04/25 09:28:46;;;;;;;16.90;16.40;;;21.10;1.00;;;;;;2612616;54;20937;-60
2024/04/25 09:31:13;;;;;;;17.17;16.67;;;21.10;1.00;;;;;;2612996;54;20418;-60
2024/04/25 09:33:39;;;;;;;16.47;15.97;;;21.20;1.00;;;;;;2612561;54;20154;-60
2024/04/25 09:36:09;;;;;;;15.53;15.03;;;21.20;1.00;;;;;;2612899;54;20506;-59
2024/04/25 09:38:35;;;;;;;16.90;16.40;;;21.20;1.00;;;;;;2612734;47;20415;-60
2024/04/25 09:41:01;;;;;;;17.70;17.20;;;21.20;1.00;;;;;;2612169;54;20506;-60
2024/04/25 09:43:27;;;;;;;17.27;16.77;;;21.20;1.00;;;;;;2611861;54;20143;-59
2024/04/25 09:45:58;;;;;;;16.57;16.07;;;21.30;1.00;;;;;;2612361;54;20427;-59
2024/04/25 09:48:28;;;;;;;17.93;17.43;;;21.30;1.00;;;;;;2613501;39;20848;-59
2024/04/25 09:50:56;;;;;;;16.87;16.37;;;21.30;1.00;;;;;;2612751;54;20411;-59
2024/04/25 09:54:02;;;;;;;16.00;15.50;;;21.20;1.00;;;;;;2612323;54;20440;-59
2024/04/25 09:56:32;;;;;;;15.70;15.20;;;21.20;1.00;;;;;;2610446;47;20439;-60
2024/04/25 09:59:17;;;;;;;15.60;15.10;;;21.10;1.00;;;;;;2613410;31;20831;-60
2024/04/25 10:01:44;;;;;;;15.30;14.80;;;21.10;1.00;;;;;;2611409;54;20498;-59
2024/04/25 10:04:11;;;;;;;16.20;15.70;;;21.00;1.00;;;;;;2611218;54;20431;-60
2024/04/25 10:06:38;;;;;;;16.23;15.73;;;20.90;1.00;;;;;;2611969;54;20484;-62
2024/04/25 10:09:05;;;;;;;15.90;15.40;;;20.80;1.00;;;;;;2612693;54;20400;-61
2024/04/25 10:11:34;;;;;;;15.73;15.23;;;20.80;1.00;;;;;;2611597;54;20526;-62
2024/04/25 10:14:01;;;;;;;16.10;15.60;;;20.70;1.00;;;;;;2611219;54;20407;-62
2024/04/25 10:16:28;;;;;;;15.80;15.30;;;20.70;1.00;;;;;;2612509;54;20438;-69
2024/04/25 10:18:53;;;;;;;15.23;14.73;;;20.70;1.00;;;;;;2612506;54;20443;-66
2024/04/25 10:21:21;;;;;;;16.00;15.50;;;20.70;1.00;;;;;;2612664;39;21215;-68
2024/04/25 10:23:49;;;;;;;15.20;14.70;;;20.70;1.00;;;;;;2612314;54;20155;-68
2024/04/25 10:26:23;;;;;;;14.37;13.97;;;20.70;1.00;;;;;;2612171;47;20423;-59
2024/04/25 10:29:02;;;;;;;15.30;14.80;;;20.70;1.00;;;;;;2612912;39;20816;-59
2024/04/25 10:31:38;;;;;;;17.13;16.53;;;20.70;1.00;;;;;;2611968;54;20413;-59
2024/04/25 10:34:05;;;;;;;15.20;14.70;;;20.70;1.00;;;;;;2612218;54;20415;-59
2024/04/25 10:36:33;;;;;;;17.40;16.90;;;20.70;1.00;;;;;;2612232;54;20435;-59
2024/04/25 10:38:59;;;;;;;17.73;17.13;;;20.70;1.00;;;;;;2612159;54;20443;-60
2024/04/25 10:41:35;;;;;;;16.30;15.80;;;20.70;1.00;;;;;;2612002;54;20447;-59
2024/04/25 10:44:09;;;;;;;15.77;15.27;;;20.80;1.00;;;;;;2612106;54;20443;-60
2024/04/25 10:46:38;;;;;;;15.47;14.97;;;20.80;1.00;;;;;;2612237;54;20419;-59
2024/04/25 10:49:08;;;;;;;15.30;14.80;;;20.70;1.00;;;;;;2612244;47;20427;-60
2024/04/25 10:51:36;;;;;;;15.73;15.23;;;20.70;1.00;;;;;;2612012;54;20522;-59
2024/04/25 10:54:02;;;;;;;15.50;15.00;;;20.70;1.00;;;;;;2611594;54;20566;-59
2024/04/25 10:56:29;;;;;;;15.33;14.83;;;20.70;1.00;;;;;;2612025;54;20449;-59
2024/04/25 10:58:56;;;;;;;15.27;14.77;;;20.70;1.00;;;;;;2612335;47;20412;-61
2024/04/25 11:01:30;;;;;;;16.27;15.77;;;20.70;1.00;;;;;;2611128;54;20408;-59
2024/04/25 11:04:01;;;;;;;15.70;15.20;;;20.70;1.00;;;;;;2612061;54;20399;-59
2024/04/25 11:06:31;;;;;;;15.30;14.80;;;20.70;1.00;;;;;;2612022;54;20547;-59
2024/04/25 11:08:57;;;;;;;15.80;15.30;;;20.70;1.00;;;;;;2611703;54;21038;-59
2024/04/25 11:11:24;;;;;;;15.73;15.23;;;20.70;1.00;;;;;;2611892;47;20415;-59
2024/04/25 11:13:52;;;;;;;14.80;14.40;;;20.70;1.00;;;;;;2611781;54;20392;-59
2024/04/25 11:16:20;;;;;;;15.30;14.80;;;20.70;1.00;;;;;;2612100;51;20431;-72
2024/04/25 11:18:48;;;;;;;15.20;14.70;;;20.70;1.00;;;;;;2612624;54;20412;-72
2024/04/25 11:21:14;;;;;;;14.40;14.00;;;20.70;1.00;;;;;;2613005;39;20755;-72
2024/04/25 11:23:40;;;;;;;15.33;14.83;;;20.70;1.00;;;;;;2612114;54;20403;-72
2024/04/25 11:26:06;;;;;;;21.03;20.20;;;20.70;1.00;;;;;;2610191;47;20454;-62
2024/04/25 11:28:32;;;;;;;15.80;15.30;;;20.80;1.00;;;;;;2611016;39;21064;-62
2024/04/25 11:30:58;;;;;;;15.33;14.83;;;20.80;1.00;;;;;;2612135;54;20166;-62
2024/04/25 11:33:26;;;;;;;15.33;14.83;;;20.90;1.00;;;;;;2609799;54;20400;-61
2024/04/25 11:35:53;;;;;;;15.87;15.37;;;20.90;1.00;;;;;;2609977;47;21095;-62
2024/04/25 11:38:19;;;;;;;16.20;15.70;;;21.00;1.00;;;;;;2612190;54;20414;-68
2024/04/25 11:40:47;;;;;;;15.30;14.80;;;21.00;1.00;;;;;;2611748;54;20411;-67
2024/04/25 11:43:17;;;;;;;25.60;24.70;;;21.00;1.00;;;;;;2610986;47;20423;-67
2024/04/25 11:45:45;;;;;;;15.47;14.97;;;21.00;1.00;;;;;;2612272;54;20395;-67
2024/04/25 11:48:16;;;;;;;15.30;14.80;;;21.00;1.00;;;;;;2611831;54;20411;-68
2024/04/25 11:50:42;;;;;;;14.60;14.20;;;21.00;1.00;;;;;;2611970;39;20664;-67
2024/04/25 11:53:09;;;;;;;17.60;17.00;;;21.00;1.00;;;;;;2611514;54;20474;-66
2024/04/25 11:55:39;;;;;;;15.47;14.97;;;20.90;1.00;;;;;;2611797;54;20407;-66
2024/04/25 11:58:08;;;;;;;36.97;34.97;;;20.90;1.00;;;;;;2611669;47;20419;-66
2024/04/25 12:00:37;;;;;;;19.30;18.70;;;20.90;1.00;;;;;;2611273;54;20400;-67
2024/04/25 12:03:04;;;;;;;15.03;14.57;;;20.90;1.00;;;;;;2609734;54;20437;-67
2024/04/25 12:05:31;;;;;;;18.43;17.83;;;20.90;1.00;;;;;;2611697;54;20403;-67
2024/04/25 12:08:03;;;;;;;14.97;14.50;;;20.90;1.00;;;;;;2612007;54;20435;-67
2024/04/25 12:10:30;;;;;;;15.30;14.80;;;20.90;1.00;;;;;;2612580;54;20414;-68
2024/04/25 12:12:56;;;;;;;15.07;14.60;;;20.80;1.00;;;;;;2611340;54;20438;-66
2024/04/25 12:15:22;;;;;;;15.60;15.10;;;20.90;1.00;;;;;;2612414;47;20435;-67
2024/04/25 12:17:48;;;;;;;16.40;15.90;;;20.90;1.00;;;;;;2612430;54;20420;-67
2024/04/25 12:20:14;;;;;;;15.90;15.40;;;20.90;1.00;;;;;;2611549;54;20431;-67
2024/04/25 12:22:40;;;;;;;15.90;15.40;;;20.80;1.00;;;;;;2612379;39;20870;-67
2024/04/25 12:25:06;;;;;;;16.10;15.60;;;20.80;1.00;;;;;;2612087;47;20419;-67
2024/04/25 12:27:31;;;;;;;15.50;15.00;;;20.80;1.00;;;;;;2612696;54;20254;-67
2024/04/25 12:29:57;;;;;;;16.87;16.37;;;20.80;1.00;;;;;;2612138;54;20161;-66
2024/04/25 12:32:23;;;;;;;17.87;17.27;;;20.80;1.00;;;;;;2612902;54;20174;-67
2024/04/25 12:34:49;;;;;;;15.43;14.93;;;20.80;1.00;;;;;;2612649;47;20197;-66
2024/04/25 12:37:14;;;;;;;15.50;15.00;;;20.80;1.00;;;;;;2613028;54;20169;-60